Snow/Ice From: 17-12-2018 09:00 Until: 17:00 warning for: Snow/Ice Level: Yellow info button
suomi:
Liikennesää: Ajokeli muuttuu huonoksi päivällä lumisateen vuoksi.

svenska:
Trafikvädret: Väglaget blir dåligt på dagen p.g.a. snöfall.

english:
Traffic weather warning: Bad road conditions are expected at noon and in the afternoon because of snow. 


Thunder radar more information blitzortung!


Löydät sääaseman tiedot myös:

European Weather Network

Finland Weather Exchange

Weather Underground

AWEKAS



Weather Underground säähistoriasivu

Päivittäin yhteenveto Kesäkuu 10, 2017 Yksiköt:  Englantilaiset    Metriset   Molemmat
« Edellinen Päivä
Seuraava Päivä »
Päivittäin Viikoittain Kuukausittain Vuosittain Mukautettu
  Korkea: Matala: Keskiarvo:
Lämpötila: TemperatureC °F 8.4 °F 15 °F
Kastepiste: DewpointC °F 7.8 °F 11.3 °F
Kosteus: Humidity % 57 % 79 %
Tuulen nopeus: WindSpeedKMH mph 0.0 mph 0.4 mph
Tuulenpuuska: WindSpeedGustKMH mph - -
Tuuli:- - West
Ilmanpaine: PressurehPa in 1014.1 in -
Sade: 0.0 in    
Historical Graphs
 
 
Taulukkotiedot Kesäkuu 10, 2017
Aika Lämpötila Kastepiste Ilmanpaine Tuuli Tuulen nopeus Tuulenpuuska Kosteus Sademäärä (tunneittain)
TemperatureC °F DewpointC °F PressurehPa in Calm     Humidity % HourlyPrecipMM in
00:00 12.9 °F 12.3 °F 1015.8 in Calm     96 % 0.0 in
00:15 12.8 °F 12.2 °F 1015.8 in Calm     96 % 0.0 in
00:30 12.6 °F 11.9 °F 1015.8 in Calm     96 % 0.0 in
00:45 12.3 °F 11.7 °F 1015.8 in Calm     96 % 0.0 in
01:00 12.2 °F 11.6 °F 1015.8 in Calm     96 % 0.0 in
01:15 12.2 °F 11.5 °F 1015.8 in Calm     96 % 0.0 in
01:30 12.0 °F 11.4 °F 1015.8 in Calm   1.6 mph 96 % 0.0 in
01:45 11.8 °F 11.2 °F 1015.8 in Calm   3.2 mph 96 % 0.0 in
02:00 11.5 °F 10.9 °F 1015.8 in Calm     96 % 0.0 in
02:15 11.2 °F 10.6 °F 1015.8 in Calm     96 % 0.0 in
02:30 10.9 °F 10.3 °F 1015.8 in Calm     96 % 0.0 in
02:45 10.7 °F 10.1 °F 1015.8 in Calm     96 % 0.0 in
03:00 10.2 °F 9.6 °F 1015.8 in Calm     96 % 0.0 in
03:15 9.7 °F 9.1 °F 1015.8 in Calm     96 % 0.0 in
03:30 9.3 °F 8.7 °F 1015.8 in Calm     96 % 0.0 in
03:45 9.2 °F 8.6 °F 1015.8 in Calm     96 % 0.0 in
04:00 8.7 °F 8.1 °F 1015.8 in Calm     96 % 0.0 in
04:15 8.4 °F 7.8 °F 1015.8 in Calm     96 % 0.0 in
04:30 8.6 °F 8.1 °F 1016.1 in Calm     97 % 0.0 in
04:45 8.9 °F 8.5 °F 1016.1 in Calm     97 % 0.0 in
05:00 9.3 °F 8.9 °F 1016.1 in Calm     97 % 0.0 in
05:15 9.6 °F 9.2 °F 1016.1 in Calm     97 % 0.0 in
05:30 9.9 °F 9.6 °F 1016.1 in Calm     98 % 0.0 in
05:45 10.1 °F 9.6 °F 1016.1 in Calm   4.8 mph 97 % 0.0 in
06:00 10.2 °F 9.7 °F 1016.1 in Calm   3.2 mph 97 % 0.0 in
06:15 10.1 °F 9.7 °F 1016.1 in Calm   3.2 mph 97 % 0.0 in
06:30 9.8 °F 9.4 °F 1016.5 in Calm   3.2 mph 97 % 0.0 in
06:45 9.7 °F 9.2 °F 1016.5 in Calm   3.2 mph 97 % 0.0 in
07:00 9.8 °F 9.3 °F 1016.5 in Calm     97 % 0.0 in
07:15 9.9 °F 9.6 °F 1016.5 in Calm     98 % 0.0 in
07:30 9.9 °F 9.6 °F 1016.5 in Calm     98 % 0.0 in
07:45 9.9 °F 9.6 °F 1016.5 in Calm     98 % 0.0 in
08:00 10.0 °F 9.7 °F 1016.5 in Calm     98 % 0.0 in
08:15 10.0 °F 9.7 °F 1016.5 in Calm   3.2 mph 98 % 0.0 in
08:30 10.2 °F 9.9 °F 1016.5 in Calm     98 % 0.0 in
08:45 10.3 °F 10.0 °F 1016.5 in Calm     98 % 0.0 in
09:00 10.5 °F 10.2 °F 1016.5 in Calm     98 % 0.0 in
09:15 10.8 °F 10.5 °F 1016.5 in Calm     98 % 0.0 in
09:30 10.6 °F 10.3 °F 1016.5 in Calm   1.6 mph 98 % 0.0 in
09:45 10.8 °F 10.6 °F 1016.5 in Calm     98 % 0.0 in
09:50 10.9 °F 10.6 °F 1016.5 in Calm   1.6 mph 98 % 0.0 in
09:55 11.1 °F 10.8 °F 1016.5 in Calm   1.6 mph 98 % 0.0 in
10:00 11.2 °F 10.9 °F 1016.5 in Calm   1.6 mph 98 % 0.0 in
10:05 11.4 °F 11.1 °F 1016.5 in Calm   1.6 mph 98 % 0.0 in
10:10 11.5 °F 11.2 °F 1016.5 in Calm   1.6 mph 98 % 0.0 in
10:15 11.7 °F 11.4 °F 1016.5 in Calm     98 % 0.0 in
10:20 11.8 °F 11.6 °F 1016.5 in Calm     98 % 0.0 in
10:25 12.3 °F 11.9 °F 1016.5 in Calm     98 % 0.0 in
10:30 12.7 °F 12.3 °F 1016.5 in Calm   1.6 mph 98 % 0.0 in
10:35 12.8 °F 12.5 °F 1016.5 in Calm   1.6 mph 98 % 0.0 in
10:40 13.3 °F 13.0 °F 1016.5 in Calm   3.2 mph 98 % 0.0 in
10:45 13.7 °F 12.9 °F 1016.5 in Calm   4.8 mph 95 % 0.0 in
10:50 14.0 °F 12.9 °F 1016.5 in Calm   4.8 mph 93 % 0.0 in
10:55 14.2 °F 12.8 °F 1016.5 in Calm   3.2 mph 91 % 0.0 in
11:00 14.6 °F 12.8 °F 1016.5 in Calm   1.6 mph 89 % 0.0 in
11:05 14.8 °F 12.7 °F 1016.5 in Calm   1.6 mph 87 % 0.0 in
11:10 15.2 °F 13.1 °F 1016.5 in Calm   1.6 mph 87 % 0.0 in
11:15 15.6 °F 13.1 °F 1016.5 in Calm   1.6 mph 85 % 0.0 in
11:20 15.8 °F 12.6 °F 1016.5 in Calm   1.6 mph 81 % 0.0 in
11:25 16.1 °F 12.8 °F 1016.5 in Calm   1.6 mph 81 % 0.0 in
11:30 16.3 °F 13.8 °F 1016.5 in Calm   3.2 mph 85 % 0.0 in
11:35 16.5 °F 13.1 °F 1016.5 in Calm   3.2 mph 80 % 0.0 in
11:40 16.7 °F 13.9 °F 1016.5 in Calm   1.6 mph 84 % 0.0 in
11:45 16.8 °F 12.9 °F 1016.5 in Calm   3.2 mph 78 % 0.0 in
11:50 16.7 °F 13.4 °F 1016.5 in Calm   4.8 mph 81 % 0.0 in
11:55 16.8 °F 13.0 °F 1016.1 in Calm   4.8 mph 78 % 0.0 in
12:00 17.0 °F 12.9 °F 1016.1 in Calm     77 % 0.0 in
12:05 17.2 °F 13.2 °F 1016.1 in Calm   3.2 mph 77 % 0.0 in
12:10 17.3 °F 13.3 °F 1016.1 in Calm   3.2 mph 77 % 0.0 in
12:15 17.6 °F 11.6 °F 1016.1 in SE 1.6 mph 8.0 mph 68 % 0.0 in
12:20 17.7 °F 13.2 °F 1016.1 in Calm   8.0 mph 75 % 0.0 in
12:25 17.8 °F 13.3 °F 1016.1 in Calm   3.2 mph 75 % 0.0 in
12:30 17.9 °F 11.7 °F 1016.1 in Calm   3.2 mph 67 % 0.0 in
12:35 18.1 °F 12.5 °F 1016.1 in WSW 1.6 mph 6.4 mph 70 % 0.0 in
12:40 18.2 °F 13.1 °F 1016.1 in Calm   6.4 mph 72 % 0.0 in
12:45 18.4 °F 11.9 °F 1016.1 in Calm   1.6 mph 66 % 0.0 in
12:50 18.4 °F 12.9 °F 1016.1 in Calm   4.8 mph 70 % 0.0 in
12:55 18.5 °F 12.7 °F 1016.1 in Calm   4.8 mph 69 % 0.0 in
13:00 18.7 °F 12.2 °F 1016.1 in Calm   1.6 mph 66 % 0.0 in
13:05 18.8 °F 12.6 °F 1016.1 in Calm   1.6 mph 67 % 0.0 in
13:10 18.7 °F 12.0 °F 1016.1 in Calm   1.6 mph 65 % 0.0 in
13:15 18.5 °F 11.6 °F 1016.1 in Calm   1.6 mph 64 % 0.0 in
13:20 18.3 °F 11.6 °F 1016.1 in Calm   1.6 mph 65 % 0.0 in
13:25 18.1 °F 11.7 °F 1015.8 in Calm   1.6 mph 66 % 0.0 in
13:30 17.9 °F 12.2 °F 1015.8 in Calm   1.6 mph 69 % 0.0 in
13:35 18.2 °F 11.5 °F 1015.8 in NNE 1.6 mph 4.8 mph 65 % 0.0 in
13:40 18.3 °F 11.3 °F 1015.8 in Calm   4.8 mph 64 % 0.0 in
13:45 18.3 °F 11.8 °F 1015.8 in Calm   1.6 mph 66 % 0.0 in
13:50 18.3 °F 11.9 °F 1015.8 in Calm   3.2 mph 66 % 0.0 in
13:55 18.3 °F 12.3 °F 1015.8 in Calm   3.2 mph 68 % 0.0 in
14:00 18.4 °F 11.5 °F 1015.8 in North 1.6 mph 6.4 mph 64 % 0.0 in
14:05 18.8 °F 11.6 °F 1015.8 in North 1.6 mph 6.4 mph 63 % 0.0 in
14:10 19.2 °F 11.4 °F 1015.5 in NNW 1.6 mph 6.4 mph 61 % 0.0 in
14:15 19.5 °F 12.0 °F 1015.5 in NW 1.6 mph 8.0 mph 62 % 0.0 in
14:20 19.9 °F 11.9 °F 1015.5 in NW 1.6 mph 8.0 mph 60 % 0.0 in
14:25 19.9 °F 11.9 °F 1015.5 in Calm   6.4 mph 60 % 0.0 in
14:30 20.1 °F 11.3 °F 1015.5 in WSW 3.2 mph 8.0 mph 57 % 0.0 in
14:35 20.0 °F 12.0 °F 1015.1 in Calm   8.0 mph 60 % 0.0 in
14:40 20.3 °F 12.5 °F 1015.1 in Calm   4.8 mph 61 % 0.0 in
14:45 20.7 °F 12.2 °F 1015.1 in NW 1.6 mph 8.0 mph 58 % 0.0 in
14:50 20.8 °F 12.7 °F 1015.1 in NNW 1.6 mph 8.0 mph 60 % 0.0 in
15:04 20.7 °F 12.9 °F 1015.1 in NW 3.2 mph 9.7 mph 61 % 0.0 in
15:15 19.1 °F 12.1 °F 1015.1 in Calm     64 % 0.0 in
15:30 20.2 °F 12.7 °F 1015.1 in West 3.2 mph 11.3 mph 62 % 0.0 in
15:45 20.2 °F 12.5 °F 1015.1 in WNW 3.2 mph 8.0 mph 61 % 0.0 in
16:00 19.7 °F 12.2 °F 1015.1 in NW 1.6 mph 8.0 mph 62 % 0.0 in
16:15 19.5 °F 12.3 °F 1014.8 in NW 1.6 mph 6.4 mph 63 % 0.0 in
16:30 19.8 °F 11.5 °F 1014.8 in Calm   6.4 mph 59 % 0.0 in
16:45 19.7 °F 12.4 °F 1014.8 in Calm   3.2 mph 63 % 0.0 in
17:00 19.8 °F 12.8 °F 1014.8 in Calm   4.8 mph 64 % 0.0 in
17:15 19.6 °F 12.6 °F 1014.8 in Calm   4.8 mph 64 % 0.0 in
17:45 18.8 °F 12.3 °F 1014.8 in West 1.6 mph 8.0 mph 66 % 0.0 in
18:00 18.7 °F 12.9 °F 1014.4 in WNW 1.6 mph 8.0 mph 69 % 0.0 in
18:15 19.4 °F 12.4 °F 1014.4 in Calm   4.8 mph 64 % 0.0 in
18:30 19.2 °F 12.2 °F 1014.4 in Calm   6.4 mph 64 % 0.0 in
18:45 18.9 °F 12.4 °F 1014.4 in Calm     66 % 0.0 in
19:00 18.9 °F 12.4 °F 1014.4 in Calm   3.2 mph 66 % 0.0 in
19:15 19.2 °F 11.7 °F 1014.4 in WNW 3.2 mph 11.3 mph 62 % 0.0 in
19:30 18.7 °F 11.5 °F 1014.4 in WNW 3.2 mph 16.1 mph 63 % 0.0 in
19:45 18.3 °F 11.1 °F 1014.4 in West 3.2 mph 14.5 mph 63 % 0.0 in
20:00 17.8 °F 10.9 °F 1014.4 in WNW 1.6 mph 9.7 mph 64 % 0.0 in
20:15 17.6 °F 10.9 °F 1014.4 in WSW 1.6 mph 8.0 mph 65 % 0.0 in
20:30 17.3 °F 10.5 °F 1014.1 in West 1.6 mph 9.7 mph 64 % 0.0 in
20:45 17.2 °F 10.8 °F 1014.1 in Calm   1.6 mph 66 % 0.0 in
21:00 16.8 °F 10.2 °F 1014.1 in West 1.6 mph 6.4 mph 65 % 0.0 in
21:15 16.4 °F 9.6 °F 1014.1 in Calm   6.4 mph 64 % 0.0 in
21:30 16.2 °F 9.4 °F 1014.1 in Calm   3.2 mph 64 % 0.0 in
21:45 15.9 °F 9.5 °F 1014.1 in Calm     66 % 0.0 in
22:00 15.6 °F 9.9 °F 1014.1 in Calm     69 % 0.0 in
22:15 15.3 °F 9.9 °F 1014.1 in Calm     70 % 0.0 in
22:30 15.0 °F 10.2 °F 1014.1 in Calm     73 % 0.0 in
22:45 14.7 °F 10.5 °F 1014.1 in Calm     76 % 0.0 in
23:00 14.3 °F 10.2 °F 1014.1 in Calm     76 % 0.0 in
23:30 13.9 °F 10.4 °F 1014.1 in Calm     79 % 0.0 in
23:45 13.8 °F 10.2 °F 1014.1 in Calm   1.6 mph 79 % 0.0 in
Esan sääasema
Terveisin Weather Underground - 3 mb

Alkuperäinen skripti  Jim McMurry - jmcmurry@mwt.net Sovitettu myös templatelle  Wim van der Kuil - Leuven-Template.eu

Laitteet joita käytämme:

Sääasema
Davis VP2

Sääasemaohjelma
Cumulus

Sääaseman tietokone
Asus EeePC

Palveluntarjoaja
Suncomet

Davis VP2

Cumulus

Asus EeePC

Suncomet